Time,TemperatureF,DewpointF,PressureIn,WindDirection,WindDirectionDegrees,WindSpeedMPH,WindSpeedGustMPH,Humidity,HourlyPrecipIn,Conditions,Clouds,dailyrainin,SolarRadiationWatts/m^2,SoftwareType,DateUTC
2013-01-27 00:04:00,21.9,8.3,30.30,SSE,158,5.0,8.0,55,0.00,,,0.00,0,WeatherHawk,2013-01-27 06:04:00,
2013-01-27 00:09:00,22.1,8.8,30.30,SSE,148,7.0,8.0,56,0.00,,,0.00,0,WeatherHawk,2013-01-27 06:09:00,
2013-01-27 00:14:00,22.0,8.3,30.30,SSE,154,6.0,9.0,55,0.00,,,0.00,0,WeatherHawk,2013-01-27 06:14:00,
2013-01-27 00:19:00,21.8,8.5,30.31,SSE,162,5.0,9.0,56,0.00,,,0.00,0,WeatherHawk,2013-01-27 06:19:00,
2013-01-27 00:24:00,21.4,8.2,30.31,South,173,4.0,10.0,56,0.00,,,0.00,0,WeatherHawk,2013-01-27 06:24:00,
2013-01-27 00:29:00,21.4,8.6,30.31,South,174,6.0,10.0,57,0.00,,,0.00,1,WeatherHawk,2013-01-27 06:29:00,
2013-01-27 00:34:00,21.1,8.7,30.31,SSE,167,3.0,7.0,58,0.00,,,0.00,0,WeatherHawk,2013-01-27 06:34:00,
2013-01-27 00:39:00,21.1,9.1,30.31,SSE,167,5.0,7.0,59,0.00,,,0.00,0,WeatherHawk,2013-01-27 06:39:00,
2013-01-27 00:44:00,21.3,9.2,30.31,SSE,163,7.0,7.0,59,0.00,,,0.00,0,WeatherHawk,2013-01-27 06:44:00,
2013-01-27 00:49:00,21.2,9.1,30.31,South,174,5.0,7.0,59,0.00,,,0.00,0,WeatherHawk,2013-01-27 06:49:00,
2013-01-27 00:54:00,21.1,9.8,30.31,SSW,196,4.0,7.0,61,0.00,,,0.00,0,WeatherHawk,2013-01-27 06:54:00,
2013-01-27 00:59:00,21.7,10.0,30.31,South,173,6.0,7.0,60,0.00,,,0.00,0,WeatherHawk,2013-01-27 06:59:00,
2013-01-27 01:04:00,21.7,10.0,30.31,South,175,5.0,7.0,60,0.00,,,0.00,0,WeatherHawk,2013-01-27 07:04:00,
2013-01-27 01:13:00,21.9,10.2,30.30,South,179,6.0,7.0,60,0.00,,,0.00,0,WeatherHawk,2013-01-27 07:13:00,
2013-01-27 01:19:00,22.0,9.9,30.30,South,179,6.0,7.0,59,0.00,,,0.00,0,WeatherHawk,2013-01-27 07:19:00,
2013-01-27 01:24:00,22.1,9.6,30.30,South,179,5.0,8.0,58,0.00,,,0.00,0,WeatherHawk,2013-01-27 07:24:00,
2013-01-27 01:29:00,22.3,9.8,30.30,South,184,4.0,8.0,58,0.00,,,0.00,0,WeatherHawk,2013-01-27 07:29:00,
2013-01-27 01:35:00,22.4,9.5,30.30,SSW,195,6.0,8.0,57,0.00,,,0.00,0,WeatherHawk,2013-01-27 07:35:00,
2013-01-27 01:40:00,22.4,9.5,30.30,South,171,4.0,8.0,57,0.00,,,0.00,0,WeatherHawk,2013-01-27 07:40:00,
2013-01-27 01:45:00,22.4,9.1,30.30,SSW,205,4.0,8.0,56,0.00,,,0.00,0,WeatherHawk,2013-01-27 07:45:00,
2013-01-27 01:51:00,22.5,8.8,30.30,SSE,161,4.0,10.0,55,0.00,,,0.00,0,WeatherHawk,2013-01-27 07:51:00,
2013-01-27 01:56:00,22.4,9.5,30.30,South,173,6.0,10.0,57,0.00,,,0.00,0,WeatherHawk,2013-01-27 07:56:00,
2013-01-27 02:02:00,22.5,9.2,30.30,South,177,11.0,11.0,56,0.00,,,0.00,0,WeatherHawk,2013-01-27 08:02:00,
2013-01-27 02:07:00,22.2,8.9,30.29,South,170,4.0,10.0,56,0.00,,,0.00,0,WeatherHawk,2013-01-27 08:07:00,
2013-01-27 02:13:00,22.4,9.1,30.30,SW,220,6.0,11.0,56,0.00,,,0.00,0,WeatherHawk,2013-01-27 08:13:00,
2013-01-27 02:18:00,22.4,9.1,30.29,SSE,165,7.0,11.0,56,0.00,,,0.00,1,WeatherHawk,2013-01-27 08:18:00,
2013-01-27 02:23:00,22.4,9.1,30.29,South,172,9.0,9.0,56,0.00,,,0.00,0,WeatherHawk,2013-01-27 08:23:00,
2013-01-27 02:28:00,22.1,8.8,30.30,South,174,4.0,8.0,56,0.00,,,0.00,0,WeatherHawk,2013-01-27 08:28:00,
2013-01-27 02:34:00,22.5,8.8,30.29,South,183,5.0,9.0,55,0.00,,,0.00,0,WeatherHawk,2013-01-27 08:34:00,
2013-01-27 02:39:00,22.3,9.1,30.30,South,171,4.0,9.0,56,0.00,,,0.00,0,WeatherHawk,2013-01-27 08:39:00,
2013-01-27 02:44:00,22.4,9.1,30.30,South,170,4.0,10.0,56,0.00,,,0.00,0,WeatherHawk,2013-01-27 08:44:00,
2013-01-27 02:50:00,22.5,8.8,30.29,SSE,159,6.0,0.0,55,0.00,,,0.00,1,WeatherHawk,2013-01-27 08:50:00,
2013-01-27 02:55:00,22.6,8.9,30.30,SE,143,7.0,9.0,55,0.00,,,0.00,0,WeatherHawk,2013-01-27 08:55:00,
2013-01-27 03:00:00,22.6,8.9,30.29,SSE,163,7.0,0.0,55,0.00,,,0.00,0,WeatherHawk,2013-01-27 09:00:00,
2013-01-27 03:06:00,22.6,9.3,30.28,SSE,162,6.0,9.0,56,0.00,,,0.00,0,WeatherHawk,2013-01-27 09:06:00,
2013-01-27 03:12:00,22.7,9.0,30.28,South,176,9.0,9.0,55,0.00,,,0.00,0,WeatherHawk,2013-01-27 09:12:00,
2013-01-27 03:17:00,22.7,9.0,30.27,SE,142,5.0,9.0,55,0.00,,,0.00,0,WeatherHawk,2013-01-27 09:17:00,
2013-01-27 03:22:00,22.9,8.8,30.27,SSE,165,10.0,10.0,54,0.00,,,0.00,0,WeatherHawk,2013-01-27 09:22:00,
2013-01-27 03:27:00,22.8,9.1,30.26,SE,137,8.0,9.0,55,0.00,,,0.00,0,WeatherHawk,2013-01-27 09:27:00,
2013-01-27 03:32:00,22.6,8.9,30.26,SE,131,5.0,10.0,55,0.00,,,0.00,0,WeatherHawk,2013-01-27 09:32:00,
2013-01-27 03:37:00,22.7,9.4,30.27,SSE,158,4.0,10.0,56,0.00,,,0.00,0,WeatherHawk,2013-01-27 09:37:00,
2013-01-27 03:42:00,22.6,9.3,30.27,SSE,166,6.0,8.0,56,0.00,,,0.00,0,WeatherHawk,2013-01-27 09:42:00,
2013-01-27 03:47:00,22.6,9.3,30.26,SSE,157,6.0,8.0,56,0.00,,,0.00,0,WeatherHawk,2013-01-27 09:47:00,
2013-01-27 03:53:00,22.5,9.6,30.27,SSE,166,7.0,8.0,57,0.00,,,0.00,0,WeatherHawk,2013-01-27 09:53:00,
2013-01-27 03:58:00,22.6,9.7,30.27,SSE,165,5.0,8.0,57,0.00,,,0.00,0,WeatherHawk,2013-01-27 09:58:00,
2013-01-27 04:04:00,22.6,9.7,30.27,SSE,159,4.0,7.0,57,0.00,,,0.00,0,WeatherHawk,2013-01-27 10:04:00,
2013-01-27 04:09:00,22.6,10.1,30.27,SSE,163,5.0,7.0,58,0.00,,,0.00,1,WeatherHawk,2013-01-27 10:09:00,
2013-01-27 04:14:00,22.6,9.7,30.26,SSE,165,4.0,8.0,57,0.00,,,0.00,0,WeatherHawk,2013-01-27 10:14:00,
2013-01-27 04:19:00,22.7,10.2,30.27,SSE,155,6.0,8.0,58,0.00,,,0.00,0,WeatherHawk,2013-01-27 10:19:00,
2013-01-27 04:24:00,22.5,10.0,30.26,SE,144,3.0,8.0,58,0.00,,,0.00,0,WeatherHawk,2013-01-27 10:24:00,
2013-01-27 04:29:00,22.7,10.2,30.26,SSE,156,3.0,8.0,58,0.00,,,0.00,0,WeatherHawk,2013-01-27 10:29:00,
2013-01-27 04:34:00,23.0,10.4,30.26,SE,142,4.0,6.0,58,0.00,,,0.00,0,WeatherHawk,2013-01-27 10:34:00,
2013-01-27 04:39:00,23.0,10.5,30.25,SSE,156,4.0,6.0,58,0.00,,,0.00,0,WeatherHawk,2013-01-27 10:39:00,
2013-01-27 04:44:00,23.2,10.6,30.25,SE,144,4.0,7.0,58,0.00,,,0.00,0,WeatherHawk,2013-01-27 10:44:00,
2013-01-27 04:50:00,23.2,10.6,30.25,SSE,162,4.0,7.0,58,0.00,,,0.00,0,WeatherHawk,2013-01-27 10:50:00,
2013-01-27 04:55:00,23.4,10.8,30.24,SSE,159,6.0,8.0,58,0.00,,,0.00,0,WeatherHawk,2013-01-27 10:55:00,
2013-01-27 05:00:00,23.3,10.7,30.25,SSE,161,4.0,8.0,58,0.00,,,0.00,0,WeatherHawk,2013-01-27 11:00:00,
2013-01-27 05:05:00,23.4,10.9,30.25,South,173,5.0,9.0,58,0.00,,,0.00,0,WeatherHawk,2013-01-27 11:05:00,
2013-01-27 05:10:00,23.5,11.0,30.25,South,174,5.0,0.0,58,0.00,,,0.00,0,WeatherHawk,2013-01-27 11:10:00,
2013-01-27 05:16:00,23.6,11.0,30.25,SSE,156,7.0,7.0,58,0.00,,,0.00,0,WeatherHawk,2013-01-27 11:16:00,
2013-01-27 05:21:00,23.7,11.1,30.25,South,174,5.0,7.0,58,0.00,,,0.00,0,WeatherHawk,2013-01-27 11:21:00,
2013-01-27 05:26:00,23.7,11.5,30.24,South,170,5.0,7.0,59,0.00,,,0.00,0,WeatherHawk,2013-01-27 11:26:00,
2013-01-27 05:31:00,23.8,11.6,30.24,South,171,7.0,7.0,59,0.00,,,0.00,0,WeatherHawk,2013-01-27 11:31:00,
2013-01-27 05:36:00,23.9,11.7,30.24,SSE,154,8.0,8.0,59,0.00,,,0.00,0,WeatherHawk,2013-01-27 11:36:00,
2013-01-27 05:41:00,23.9,11.7,30.23,SSE,155,8.0,9.0,59,0.00,,,0.00,0,WeatherHawk,2013-01-27 11:41:00,
2013-01-27 05:46:00,23.9,11.7,30.24,SSE,155,5.0,9.0,59,0.00,,,0.00,0,WeatherHawk,2013-01-27 11:46:00,
2013-01-27 05:52:00,23.9,12.1,30.24,SSE,151,7.0,9.0,60,0.00,,,0.00,0,WeatherHawk,2013-01-27 11:52:00,
2013-01-27 05:57:00,23.9,12.1,30.24,South,175,7.0,9.0,60,0.00,,,0.00,0,WeatherHawk,2013-01-27 11:57:00,
2013-01-27 06:02:00,24.0,12.5,30.23,SE,129,5.0,10.0,61,0.00,,,0.00,1,WeatherHawk,2013-01-27 12:02:00,
2013-01-27 06:07:00,23.9,12.5,30.24,SE,130,4.0,10.0,61,0.00,,,0.00,0,WeatherHawk,2013-01-27 12:07:00,
2013-01-27 06:12:00,24.0,12.6,30.23,SE,136,7.0,9.0,61,0.00,,,0.00,0,WeatherHawk,2013-01-27 12:12:00,
2013-01-27 06:17:00,23.9,12.8,30.23,SE,146,4.0,9.0,62,0.00,,,0.00,0,WeatherHawk,2013-01-27 12:17:00,
2013-01-27 06:22:00,24.0,12.9,30.24,SSE,148,6.0,8.0,62,0.00,,,0.00,0,WeatherHawk,2013-01-27 12:22:00,
2013-01-27 06:27:00,24.1,13.3,30.23,SSE,148,5.0,8.0,63,0.00,,,0.00,0,WeatherHawk,2013-01-27 12:27:00,
2013-01-27 06:32:00,24.0,13.3,30.23,SE,143,5.0,8.0,63,0.00,,,0.00,0,WeatherHawk,2013-01-27 12:32:00,
2013-01-27 06:37:00,23.8,13.1,30.24,SSE,147,4.0,8.0,63,0.00,,,0.00,0,WeatherHawk,2013-01-27 12:37:00,
2013-01-27 06:42:00,23.8,13.4,30.24,SE,145,5.0,9.0,64,0.00,,,0.00,1,WeatherHawk,2013-01-27 12:42:00,
2013-01-27 06:47:00,23.8,13.5,30.23,South,181,6.0,9.0,64,0.00,,,0.00,1,WeatherHawk,2013-01-27 12:47:00,
2013-01-27 06:52:00,24.0,14.0,30.23,SSE,158,7.0,7.0,65,0.00,,,0.00,0,WeatherHawk,2013-01-27 12:52:00,
2013-01-27 06:57:00,24.1,13.7,30.24,SSE,155,7.0,7.0,64,0.00,,,0.00,0,WeatherHawk,2013-01-27 12:57:00,
2013-01-27 07:02:00,24.1,14.1,30.23,SSE,155,7.0,9.0,65,0.00,,,0.00,1,WeatherHawk,2013-01-27 13:02:00,
2013-01-27 07:07:00,24.1,14.1,30.24,SSE,163,7.0,9.0,65,0.00,,,0.00,0,WeatherHawk,2013-01-27 13:07:00,
2013-01-27 07:12:00,24.2,14.2,30.24,SSE,147,8.0,10.0,65,0.00,,,0.00,0,WeatherHawk,2013-01-27 13:12:00,
2013-01-27 07:17:00,24.3,14.3,30.23,SSE,159,9.0,10.0,65,0.00,,,0.00,2,WeatherHawk,2013-01-27 13:17:00,
2013-01-27 07:22:00,24.3,14.3,30.23,SSE,155,10.0,11.0,65,0.00,,,0.00,2,WeatherHawk,2013-01-27 13:22:00,
2013-01-27 07:27:00,24.4,14.3,30.23,South,182,8.0,11.0,65,0.00,,,0.00,4,WeatherHawk,2013-01-27 13:27:00,
2013-01-27 07:32:00,24.4,14.3,30.23,South,171,7.0,12.0,65,0.00,,,0.00,7,WeatherHawk,2013-01-27 13:32:00,
2013-01-27 07:37:00,24.5,14.5,30.23,SSE,147,7.0,12.0,65,0.00,,,0.00,11,WeatherHawk,2013-01-27 13:37:00,
2013-01-27 07:42:00,24.6,14.5,30.23,SSE,156,7.0,11.0,65,0.00,,,0.00,12,WeatherHawk,2013-01-27 13:42:00,
2013-01-27 07:47:00,24.6,14.6,30.24,SSE,168,5.0,11.0,65,0.00,,,0.00,18,WeatherHawk,2013-01-27 13:47:00,
2013-01-27 07:52:00,24.7,14.7,30.24,SSE,161,4.0,10.0,65,0.00,,,0.00,19,WeatherHawk,2013-01-27 13:52:00,
2013-01-27 07:57:00,24.8,14.7,30.24,ESE,120,7.0,10.0,65,0.00,,,0.00,22,WeatherHawk,2013-01-27 13:57:00,
2013-01-27 08:02:00,24.9,14.8,30.24,South,173,8.0,11.0,65,0.00,,,0.00,26,WeatherHawk,2013-01-27 14:02:00,
2013-01-27 08:07:00,24.9,14.9,30.24,SSE,159,8.0,11.0,65,0.00,,,0.00,28,WeatherHawk,2013-01-27 14:07:00,
2013-01-27 08:12:00,25.1,15.0,30.24,SE,130,6.0,11.0,65,0.00,,,0.00,35,WeatherHawk,2013-01-27 14:12:00,
2013-01-27 08:17:00,25.2,15.1,30.25,South,172,7.0,11.0,65,0.00,,,0.00,47,WeatherHawk,2013-01-27 14:17:00,
2013-01-27 08:22:00,25.3,14.9,30.24,SE,139,9.0,10.0,64,0.00,,,0.00,47,WeatherHawk,2013-01-27 14:22:00,
2013-01-27 08:27:00,25.4,14.6,30.25,SSE,167,11.0,11.0,63,0.00,,,0.00,42,WeatherHawk,2013-01-27 14:27:00,
2013-01-27 08:32:00,25.5,14.7,30.25,South,170,11.0,11.0,63,0.00,,,0.00,43,WeatherHawk,2013-01-27 14:32:00,
2013-01-27 08:37:00,25.7,15.3,30.25,South,169,6.0,9.0,64,0.00,,,0.00,44,WeatherHawk,2013-01-27 14:37:00,
2013-01-27 08:42:00,25.7,14.9,30.25,SSE,162,8.0,12.0,63,0.00,,,0.00,47,WeatherHawk,2013-01-27 14:42:00,
2013-01-27 08:47:00,25.8,14.6,30.25,South,182,10.0,12.0,62,0.00,,,0.00,69,WeatherHawk,2013-01-27 14:47:00,
2013-01-27 08:52:00,25.9,14.7,30.25,South,182,13.0,13.0,62,0.00,,,0.00,76,WeatherHawk,2013-01-27 14:52:00,
2013-01-27 08:57:00,26.1,14.9,30.24,South,169,8.0,10.0,62,0.00,,,0.00,87,WeatherHawk,2013-01-27 14:57:00,
2013-01-27 09:02:00,26.4,15.1,30.25,SSE,158,9.0,13.0,62,0.00,,,0.00,97,WeatherHawk,2013-01-27 15:02:00,
2013-01-27 09:07:00,26.4,15.2,30.24,South,172,8.0,13.0,62,0.00,,,0.00,129,WeatherHawk,2013-01-27 15:07:00,
2013-01-27 09:12:00,26.7,15.0,30.24,SE,144,9.0,13.0,61,0.00,,,0.00,122,WeatherHawk,2013-01-27 15:12:00,
2013-01-27 09:17:00,26.8,14.8,30.23,SSE,162,10.0,13.0,60,0.00,,,0.00,100,WeatherHawk,2013-01-27 15:17:00,
2013-01-27 09:22:00,26.7,14.7,30.24,SSE,156,9.0,13.0,60,0.00,,,0.00,113,WeatherHawk,2013-01-27 15:22:00,
2013-01-27 09:27:00,26.9,14.9,30.24,South,188,9.0,13.0,60,0.00,,,0.00,105,WeatherHawk,2013-01-27 15:27:00,
2013-01-27 09:32:00,26.8,14.8,30.23,SSE,166,11.0,15.0,60,0.00,,,0.00,86,WeatherHawk,2013-01-27 15:32:00,
2013-01-27 09:37:00,27.0,15.4,30.23,South,184,6.0,15.0,61,0.00,,,0.00,76,WeatherHawk,2013-01-27 15:37:00,
2013-01-27 09:43:00,26.8,15.2,30.23,South,169,8.0,13.0,61,0.00,,,0.00,66,WeatherHawk,2013-01-27 15:43:00,
2013-01-27 09:48:00,26.9,15.3,30.22,SSE,166,6.0,13.0,61,0.00,,,0.00,69,WeatherHawk,2013-01-27 15:48:00,
2013-01-27 09:54:00,26.9,15.2,30.22,South,169,8.0,14.0,61,0.00,,,0.00,59,WeatherHawk,2013-01-27 15:54:00,
2013-01-27 09:59:00,26.9,15.3,30.22,SSE,161,8.0,14.0,61,0.00,,,0.00,70,WeatherHawk,2013-01-27 15:59:00,
2013-01-27 10:04:00,27.1,15.5,30.22,SSE,161,7.0,13.0,61,0.00,,,0.00,76,WeatherHawk,2013-01-27 16:04:00,
2013-01-27 10:09:00,27.1,15.1,30.23,SSE,158,8.0,13.0,60,0.00,,,0.00,80,WeatherHawk,2013-01-27 16:09:00,
2013-01-27 10:14:00,27.4,15.7,30.22,SSE,168,8.0,14.0,61,0.00,,,0.00,105,WeatherHawk,2013-01-27 16:14:00,
2013-01-27 10:20:00,27.6,15.9,30.23,SSE,158,9.0,14.0,61,0.00,,,0.00,121,WeatherHawk,2013-01-27 16:20:00,
2013-01-27 10:25:00,27.8,15.7,30.23,South,175,8.0,13.0,60,0.00,,,0.00,108,WeatherHawk,2013-01-27 16:25:00,
2013-01-27 10:30:00,27.9,15.9,30.23,South,179,8.0,13.0,60,0.00,,,0.00,98,WeatherHawk,2013-01-27 16:30:00,
2013-01-27 10:35:00,28.0,15.9,30.23,SSE,165,6.0,12.0,60,0.00,,,0.00,86,WeatherHawk,2013-01-27 16:35:00,
2013-01-27 10:40:00,28.0,15.5,30.21,South,175,8.0,0.0,59,0.00,,,0.00,86,WeatherHawk,2013-01-27 16:40:00,
2013-01-27 10:45:00,28.0,15.6,30.22,SSE,167,9.0,12.0,59,0.00,,,0.00,81,WeatherHawk,2013-01-27 16:45:00,
2013-01-27 10:50:00,28.0,15.6,30.22,SSE,167,10.0,0.0,59,0.00,,,0.00,68,WeatherHawk,2013-01-27 16:50:00,
2013-01-27 10:55:00,27.9,15.9,30.20,SSE,156,10.0,13.0,60,0.00,,,0.00,63,WeatherHawk,2013-01-27 16:55:00,
2013-01-27 11:00:00,28.0,16.3,30.20,SSW,195,5.0,0.0,61,0.00,,,0.00,57,WeatherHawk,2013-01-27 17:00:00,
2013-01-27 11:05:00,27.8,16.5,30.19,SE,136,9.0,12.0,62,0.00,,,0.00,61,WeatherHawk,2013-01-27 17:05:00,
2013-01-27 11:10:00,27.9,16.2,30.18,South,171,11.0,0.0,61,0.00,,,0.00,64,WeatherHawk,2013-01-27 17:10:00,
2013-01-27 11:16:00,28.1,16.8,30.19,SSE,165,10.0,11.0,62,0.00,,,0.00,54,WeatherHawk,2013-01-27 17:16:00,
2013-01-27 11:21:00,28.2,16.8,30.19,SSE,158,11.0,12.0,62,0.00,,,0.00,74,WeatherHawk,2013-01-27 17:21:00,
2013-01-27 11:26:00,28.3,17.0,30.19,SSE,161,6.0,12.0,62,0.00,,,0.00,69,WeatherHawk,2013-01-27 17:26:00,
2013-01-27 11:31:00,28.4,16.6,30.18,SSE,159,7.0,12.0,61,0.00,,,0.00,71,WeatherHawk,2013-01-27 17:31:00,
2013-01-27 11:36:00,28.4,16.7,30.17,South,172,9.0,12.0,61,0.00,,,0.00,58,WeatherHawk,2013-01-27 17:36:00,
2013-01-27 11:41:00,28.4,16.7,30.17,South,186,6.0,13.0,61,0.00,,,0.00,54,WeatherHawk,2013-01-27 17:41:00,
2013-01-27 11:46:00,28.4,16.7,30.18,South,173,10.0,13.0,61,0.00,,,0.00,63,WeatherHawk,2013-01-27 17:46:00,
2013-01-27 11:51:00,28.4,17.5,30.16,South,174,8.0,14.0,63,0.00,,,0.00,87,WeatherHawk,2013-01-27 17:51:00,
2013-01-27 11:56:00,28.4,17.5,30.15,SE,135,7.0,14.0,63,0.00,,,0.00,88,WeatherHawk,2013-01-27 17:56:00,
2013-01-27 12:01:00,28.7,17.7,30.15,East,101,7.0,14.0,63,0.00,,,0.00,135,WeatherHawk,2013-01-27 18:01:00,
2013-01-27 12:07:00,29.1,17.7,30.14,South,186,7.0,14.0,62,0.00,,,0.00,108,WeatherHawk,2013-01-27 18:07:00,
2013-01-27 12:12:00,28.9,17.2,30.14,SSE,149,9.0,11.0,61,0.00,,,0.00,76,WeatherHawk,2013-01-27 18:12:00,
2013-01-27 12:17:00,28.9,17.6,30.13,SSE,156,6.0,11.0,62,0.00,,,0.00,56,WeatherHawk,2013-01-27 18:17:00,
2013-01-27 12:22:00,28.8,17.8,30.15,SSE,167,6.0,10.0,63,0.00,,,0.00,42,WeatherHawk,2013-01-27 18:22:00,
2013-01-27 12:27:00,28.8,17.9,30.13,SE,142,7.0,10.0,63,0.00,,,0.00,56,WeatherHawk,2013-01-27 18:27:00,
2013-01-27 12:33:00,28.9,17.9,30.13,SSE,156,8.0,12.0,63,0.00,,,0.00,67,WeatherHawk,2013-01-27 18:33:00,
2013-01-27 12:38:00,28.7,18.1,30.13,SE,136,5.0,12.0,64,0.00,,,0.00,54,WeatherHawk,2013-01-27 18:38:00,
2013-01-27 12:43:00,28.6,18.4,30.12,SE,136,6.0,10.0,65,0.00,,,0.00,60,WeatherHawk,2013-01-27 18:43:00,
2013-01-27 12:48:00,28.6,18.7,30.13,SSE,151,5.0,10.0,66,0.00,,,0.00,59,WeatherHawk,2013-01-27 18:48:00,
2013-01-27 12:53:00,28.4,19.2,30.13,SSE,164,7.0,8.0,68,0.00,,,0.00,60,WeatherHawk,2013-01-27 18:53:00,
2013-01-27 12:58:00,28.4,19.2,30.14,SE,137,7.0,8.0,68,0.00,,,0.00,47,WeatherHawk,2013-01-27 18:58:00,
2013-01-27 13:03:00,28.2,19.3,30.13,SSE,149,11.0,11.0,69,0.00,,,0.00,39,WeatherHawk,2013-01-27 19:03:00,
2013-01-27 13:08:00,27.8,20.3,30.12,SSE,163,9.0,10.0,73,0.00,,,0.00,30,WeatherHawk,2013-01-27 19:08:00,
2013-01-27 13:13:00,27.4,21.1,30.11,SE,141,8.0,11.0,77,0.00,,,0.00,25,WeatherHawk,2013-01-27 19:13:00,
2013-01-27 13:18:00,27.0,22.8,30.11,SSE,156,6.0,11.0,84,0.00,,,0.00,35,WeatherHawk,2013-01-27 19:18:00,
2013-01-27 13:23:00,26.9,24.1,30.10,SSE,159,8.0,13.0,89,0.00,,,0.00,34,WeatherHawk,2013-01-27 19:23:00,
2013-01-27 13:28:00,26.7,24.4,30.09,SE,132,10.0,13.0,91,0.00,,,0.00,30,WeatherHawk,2013-01-27 19:28:00,
2013-01-27 13:34:00,26.9,25.4,30.10,SE,134,8.0,13.0,94,0.00,,,0.00,32,WeatherHawk,2013-01-27 19:34:00,
2013-01-27 13:39:00,27.0,25.7,30.10,East,100,5.0,13.0,95,0.00,,,0.00,40,WeatherHawk,2013-01-27 19:39:00,
2013-01-27 13:44:00,27.0,26.0,30.08,ESE,105,8.0,11.0,96,0.00,,,0.00,56,WeatherHawk,2013-01-27 19:44:00,
2013-01-27 13:49:00,27.1,26.4,30.09,SE,143,8.0,11.0,97,0.00,,,0.00,81,WeatherHawk,2013-01-27 19:49:00,
2013-01-27 13:54:00,27.4,26.4,30.08,SE,132,4.0,11.0,96,0.00,,,0.00,75,WeatherHawk,2013-01-27 19:54:00,
2013-01-27 13:59:00,27.5,26.5,30.08,SSE,165,8.0,11.0,96,0.00,,,0.00,66,WeatherHawk,2013-01-27 19:59:00,
2013-01-27 14:04:00,27.8,26.6,30.08,ENE,75,4.0,10.0,95,0.00,,,0.00,81,WeatherHawk,2013-01-27 20:04:00,
2013-01-27 14:10:00,28.1,26.3,30.07,SE,125,6.0,-999.0,93,0.00,,,0.00,86,WeatherHawk,2013-01-27 20:10:00,
2013-01-27 14:15:00,28.4,26.4,30.07,SE,126,3.0,10.0,92,0.00,,,0.00,84,WeatherHawk,2013-01-27 20:15:00,
2013-01-27 14:20:00,28.6,26.0,30.06,SE,138,6.0,10.0,90,0.00,,,0.00,93,WeatherHawk,2013-01-27 20:20:00,
2013-01-27 14:25:00,28.5,25.7,30.05,SSE,154,8.0,10.0,89,0.00,,,0.00,83,WeatherHawk,2013-01-27 20:25:00,
2013-01-27 14:30:00,28.9,25.8,30.07,SE,130,6.0,0.0,88,0.00,,,0.00,77,WeatherHawk,2013-01-27 20:30:00,
2013-01-27 14:36:00,28.7,25.4,30.07,SSE,153,4.0,10.0,87,0.00,,,0.00,47,WeatherHawk,2013-01-27 20:36:00,
2013-01-27 14:41:00,28.8,25.7,30.07,SSE,155,6.0,11.0,88,0.00,,,0.00,68,WeatherHawk,2013-01-27 20:41:00,
2013-01-27 14:46:00,29.0,25.6,30.08,SSE,157,5.0,11.0,87,0.00,,,0.00,74,WeatherHawk,2013-01-27 20:46:00,
2013-01-27 14:51:00,29.3,25.7,30.07,East,84,4.0,10.0,86,0.00,,,0.00,98,WeatherHawk,2013-01-27 20:51:00,
2013-01-27 14:56:00,29.4,25.4,30.06,SSE,156,3.0,10.0,85,0.00,,,0.00,84,WeatherHawk,2013-01-27 20:56:00,
2013-01-27 15:01:00,29.3,25.1,30.05,ENE,60,8.0,8.0,84,0.00,,,0.00,55,WeatherHawk,2013-01-27 21:01:00,
2013-01-27 15:06:00,29.4,25.1,30.06,ESE,119,7.0,8.0,84,0.00,,,0.00,47,WeatherHawk,2013-01-27 21:06:00,
2013-01-27 15:11:00,29.5,25.3,30.05,SE,138,7.0,9.0,84,0.00,,,0.00,46,WeatherHawk,2013-01-27 21:11:00,
2013-01-27 15:16:00,29.6,25.0,30.04,ESE,117,9.0,9.0,83,0.00,,,0.00,44,WeatherHawk,2013-01-27 21:16:00,
2013-01-27 15:21:00,29.5,25.0,30.03,SE,132,9.0,10.0,83,0.00,,,0.00,42,WeatherHawk,2013-01-27 21:21:00,
2013-01-27 15:26:00,29.5,25.0,30.02,ENE,73,5.0,10.0,83,0.00,,,0.00,22,WeatherHawk,2013-01-27 21:26:00,
2013-01-27 15:31:00,29.4,25.2,30.02,ESE,103,7.0,12.0,84,0.00,,,0.00,61,WeatherHawk,2013-01-27 21:31:00,
2013-01-27 15:36:00,29.2,25.2,30.01,ESE,115,5.0,12.0,85,0.00,,,0.00,52,WeatherHawk,2013-01-27 21:36:00,
2013-01-27 15:41:00,29.2,25.6,30.00,ESE,108,3.0,10.0,86,0.00,,,0.00,37,WeatherHawk,2013-01-27 21:41:00,
2013-01-27 15:46:00,29.0,25.3,30.00,East,93,4.0,10.0,86,0.00,,,0.00,21,WeatherHawk,2013-01-27 21:46:00,
2013-01-27 15:51:00,28.8,26.0,30.00,SE,134,7.0,10.0,89,0.00,,,0.00,12,WeatherHawk,2013-01-27 21:51:00,
2013-01-27 15:56:00,29.0,26.4,30.00,ENE,77,7.0,10.0,90,0.00,,,0.00,19,WeatherHawk,2013-01-27 21:56:00,
2013-01-27 16:01:00,29.1,26.3,30.00,SE,143,4.0,11.0,89,0.00,,,0.00,15,WeatherHawk,2013-01-27 22:01:00,
2013-01-27 16:06:00,29.0,25.9,29.99,SSE,147,7.0,11.0,88,0.00,,,0.00,15,WeatherHawk,2013-01-27 22:06:00,
2013-01-27 16:11:00,29.1,26.0,29.99,ENE,59,5.0,7.0,88,0.00,,,0.00,28,WeatherHawk,2013-01-27 22:11:00,
2013-01-27 16:16:00,29.0,25.6,29.98,SE,145,8.0,8.0,87,0.00,,,0.00,10,WeatherHawk,2013-01-27 22:16:00,
2013-01-27 16:21:00,28.8,25.7,29.99,ESE,103,8.0,9.0,88,0.00,,,0.00,7,WeatherHawk,2013-01-27 22:21:00,
2013-01-27 16:26:00,28.8,26.5,29.98,ENE,69,5.0,9.0,91,0.00,,,0.00,8,WeatherHawk,2013-01-27 22:26:00,
2013-01-27 16:31:00,28.6,26.9,29.97,South,169,9.0,11.0,93,0.00,,,0.00,9,WeatherHawk,2013-01-27 22:31:00,
2013-01-27 16:36:00,28.4,26.9,29.98,SE,142,6.0,11.0,94,0.00,,,0.00,6,WeatherHawk,2013-01-27 22:36:00,
2013-01-27 16:41:00,28.6,27.3,29.97,SE,125,7.0,11.0,95,0.00,,,0.00,7,WeatherHawk,2013-01-27 22:41:00,
2013-01-27 16:46:00,28.5,27.5,29.97,SE,140,4.0,11.0,96,0.00,,,0.00,4,WeatherHawk,2013-01-27 22:46:00,
2013-01-27 16:51:00,28.3,27.6,29.97,ESE,103,6.0,10.0,97,0.00,,,0.00,4,WeatherHawk,2013-01-27 22:51:00,
2013-01-27 16:56:00,28.3,27.5,29.96,SE,137,6.0,10.0,97,0.00,,,0.00,3,WeatherHawk,2013-01-27 22:56:00,
2013-01-27 17:01:00,28.5,28.0,29.96,South,169,6.0,9.0,98,0.00,,,0.00,3,WeatherHawk,2013-01-27 23:01:00,
2013-01-27 17:06:00,28.3,27.8,29.96,SE,130,5.0,9.0,98,0.00,,,0.00,3,WeatherHawk,2013-01-27 23:06:00,
2013-01-27 17:11:00,28.5,28.3,29.96,SE,132,7.0,12.0,99,0.00,,,0.00,1,WeatherHawk,2013-01-27 23:11:00,
2013-01-27 17:16:00,28.4,28.4,29.97,East,98,5.0,12.0,100,0.00,,,0.00,0,WeatherHawk,2013-01-27 23:16:00,
2013-01-27 17:21:00,28.6,28.6,29.97,SSE,161,4.0,11.0,100,0.00,,,0.00,2,WeatherHawk,2013-01-27 23:21:00,
2013-01-27 17:26:00,28.7,28.7,29.96,SE,133,8.0,11.0,100,0.00,,,0.00,0,WeatherHawk,2013-01-27 23:26:00,
2013-01-27 17:31:00,28.8,28.8,29.96,South,184,7.0,10.0,100,0.00,,,0.00,0,WeatherHawk,2013-01-27 23:31:00,
2013-01-27 17:36:00,28.8,28.8,29.96,SSE,163,6.0,10.0,100,0.00,,,0.00,0,WeatherHawk,2013-01-27 23:36:00,
2013-01-27 17:41:00,28.9,28.9,29.96,SE,136,6.0,12.0,100,0.00,,,0.00,1,WeatherHawk,2013-01-27 23:41:00,
2013-01-27 17:46:00,29.0,29.0,29.96,SSE,164,9.0,12.0,100,0.00,,,0.00,1,WeatherHawk,2013-01-27 23:46:00,
2013-01-27 17:51:00,29.0,29.0,29.96,SE,137,6.0,10.0,100,0.00,,,0.00,0,WeatherHawk,2013-01-27 23:51:00,
2013-01-27 17:56:00,29.2,29.2,29.95,SE,138,6.0,10.0,100,0.00,,,0.00,0,WeatherHawk,2013-01-27 23:56:00,
2013-01-27 18:01:00,29.4,29.4,29.95,SSE,147,5.0,10.0,100,0.00,,,0.00,0,WeatherHawk,2013-01-28 00:01:00,
2013-01-27 18:06:00,29.3,29.3,29.95,SE,131,6.0,10.0,100,0.00,,,0.00,0,WeatherHawk,2013-01-28 00:06:00,
2013-01-27 18:11:00,29.4,29.4,29.94,SSE,162,7.0,9.0,100,0.00,,,0.00,0,WeatherHawk,2013-01-28 00:11:00,
2013-01-27 18:16:00,29.3,29.3,29.95,SSE,150,10.0,10.0,100,0.00,,,0.00,0,WeatherHawk,2013-01-28 00:16:00,
2013-01-27 18:21:00,29.5,29.5,29.94,SSE,158,5.0,11.0,100,0.00,,,0.00,0,WeatherHawk,2013-01-28 00:21:00,
2013-01-27 18:26:00,29.4,29.4,29.94,SSE,152,8.0,11.0,100,0.00,,,0.00,0,WeatherHawk,2013-01-28 00:26:00,
2013-01-27 18:31:00,29.5,29.5,29.94,SE,143,7.0,11.0,100,0.00,,,0.00,0,WeatherHawk,2013-01-28 00:31:00,
2013-01-27 18:36:00,29.5,29.5,29.95,SSE,163,3.0,11.0,100,0.00,,,0.00,0,WeatherHawk,2013-01-28 00:36:00,
2013-01-27 18:41:00,29.4,29.4,29.94,SE,124,10.0,10.0,100,0.00,,,0.00,0,WeatherHawk,2013-01-28 00:41:00,
2013-01-27 18:46:00,29.4,29.4,29.93,SSE,155,7.0,10.0,100,0.00,,,0.00,0,WeatherHawk,2013-01-28 00:46:00,
2013-01-27 18:52:00,29.5,29.5,29.94,SSE,151,8.0,10.0,100,0.00,,,0.00,0,WeatherHawk,2013-01-28 00:52:00,
2013-01-27 18:57:00,29.7,29.7,29.94,SSE,161,8.0,10.0,100,0.00,,,0.00,1,WeatherHawk,2013-01-28 00:57:00,
2013-01-27 19:02:00,29.8,29.8,29.94,SSE,155,5.0,11.0,100,0.00,,,0.00,0,WeatherHawk,2013-01-28 01:02:00,
2013-01-27 19:07:00,29.8,29.8,29.94,SSE,156,5.0,11.0,100,0.00,,,0.00,0,WeatherHawk,2013-01-28 01:07:00,
2013-01-27 19:12:00,29.9,29.9,29.93,SE,134,1.0,10.0,100,0.00,,,0.00,0,WeatherHawk,2013-01-28 01:12:00,
2013-01-27 19:17:00,29.9,29.9,29.93,SSE,157,4.0,10.0,100,0.00,,,0.00,0,WeatherHawk,2013-01-28 01:17:00,
2013-01-27 19:22:00,29.8,29.8,29.93,NE,44,2.0,8.0,100,0.00,,,0.00,0,WeatherHawk,2013-01-28 01:22:00,
2013-01-27 19:27:00,29.8,29.8,29.93,SE,131,0.0,8.0,100,0.00,,,0.00,0,WeatherHawk,2013-01-28 01:27:00,
2013-01-27 19:32:00,29.8,29.8,29.93,East,97,3.0,6.0,100,0.00,,,0.00,0,WeatherHawk,2013-01-28 01:32:00,
2013-01-27 19:37:00,29.9,29.9,29.93,South,176,0.0,6.0,100,0.00,,,0.00,0,WeatherHawk,2013-01-28 01:37:00,
2013-01-27 19:43:00,30.0,30.0,29.93,ESE,115,3.0,6.0,100,0.00,,,0.00,0,WeatherHawk,2013-01-28 01:43:00,
2013-01-27 19:48:00,30.1,30.1,29.93,East,79,5.0,6.0,100,0.00,,,0.00,1,WeatherHawk,2013-01-28 01:48:00,
2013-01-27 19:54:00,30.1,30.1,29.92,SE,142,4.0,5.0,100,0.00,,,0.00,0,WeatherHawk,2013-01-28 01:54:00,
2013-01-27 19:59:00,30.2,30.2,29.92,NE,37,3.0,5.0,100,0.00,,,0.00,0,WeatherHawk,2013-01-28 01:59:00,
2013-01-27 20:04:00,30.2,30.2,29.92,SSW,193,2.0,6.0,100,0.00,,,0.00,1,WeatherHawk,2013-01-28 02:04:00,
2013-01-27 20:09:00,30.3,30.3,29.91,SE,138,1.0,6.0,100,0.00,,,0.00,0,WeatherHawk,2013-01-28 02:09:00,
2013-01-27 20:14:00,30.3,30.3,29.92,East,86,1.0,6.0,100,0.00,,,0.00,0,WeatherHawk,2013-01-28 02:14:00,
2013-01-27 20:19:00,30.3,30.3,29.92,South,175,0.0,6.0,100,0.00,,,0.00,0,WeatherHawk,2013-01-28 02:19:00,
2013-01-27 20:25:00,30.3,30.3,29.91,ENE,70,3.0,5.0,100,0.00,,,0.00,0,WeatherHawk,2013-01-28 02:25:00,
2013-01-27 20:30:00,30.4,30.4,29.91,NE,54,2.0,5.0,100,0.00,,,0.00,0,WeatherHawk,2013-01-28 02:30:00,
2013-01-27 20:35:00,30.4,30.4,29.91,East,98,1.0,5.0,100,0.00,,,0.00,0,WeatherHawk,2013-01-28 02:35:00,
2013-01-27 20:40:00,30.5,30.5,29.91,SSE,152,2.0,5.0,100,0.00,,,0.00,0,WeatherHawk,2013-01-28 02:40:00,
2013-01-27 20:45:00,30.5,30.5,29.91,SSE,147,2.0,5.0,100,0.00,,,0.00,0,WeatherHawk,2013-01-28 02:45:00,
2013-01-27 20:50:00,30.5,30.5,29.91,ESE,114,0.0,0.0,100,0.00,,,0.00,1,WeatherHawk,2013-01-28 02:50:00,
2013-01-27 20:56:00,30.5,30.5,29.91,ENE,67,2.0,6.0,100,0.00,,,0.00,0,WeatherHawk,2013-01-28 02:56:00,
2013-01-27 21:01:00,30.5,30.5,29.91,NE,41,0.0,4.0,100,0.00,,,0.00,0,WeatherHawk,2013-01-28 03:01:00,
2013-01-27 21:06:00,30.6,30.6,29.90,ESE,110,0.0,4.0,100,0.00,,,0.00,0,WeatherHawk,2013-01-28 03:06:00,
2013-01-27 21:11:00,30.6,30.6,29.90,ESE,114,0.0,4.0,100,0.00,,,0.00,0,WeatherHawk,2013-01-28 03:11:00,
2013-01-27 21:16:00,30.7,30.7,29.90,SE,138,4.0,4.0,100,0.00,,,0.00,0,WeatherHawk,2013-01-28 03:16:00,
2013-01-27 21:21:00,30.8,30.8,29.90,SE,141,2.0,5.0,100,0.00,,,0.00,0,WeatherHawk,2013-01-28 03:21:00,
2013-01-27 21:26:00,30.9,30.9,29.90,SSW,202,1.0,5.0,100,0.00,,,0.00,0,WeatherHawk,2013-01-28 03:26:00,
2013-01-27 21:31:00,31.0,31.0,29.90,SSE,156,3.0,4.0,100,0.00,,,0.00,0,WeatherHawk,2013-01-28 03:31:00,
2013-01-27 21:36:00,31.2,31.2,29.90,South,171,6.0,6.0,100,0.00,,,0.00,0,WeatherHawk,2013-01-28 03:36:00,
2013-01-27 21:41:00,31.3,31.3,29.90,SSE,152,4.0,6.0,100,0.00,,,0.00,0,WeatherHawk,2013-01-28 03:41:00,
2013-01-27 21:46:00,31.5,31.5,29.90,SE,145,3.0,6.0,100,0.00,,,0.00,0,WeatherHawk,2013-01-28 03:46:00,
2013-01-27 21:51:00,31.5,31.5,29.89,SSE,154,0.0,6.0,100,0.00,,,0.00,0,WeatherHawk,2013-01-28 03:51:00,
2013-01-27 21:56:00,31.6,31.6,29.89,SE,146,2.0,6.0,100,0.00,,,0.00,0,WeatherHawk,2013-01-28 03:56:00,
2013-01-27 22:01:00,31.7,31.7,29.89,SSE,158,4.0,5.0,100,0.00,,,0.00,0,WeatherHawk,2013-01-28 04:01:00,
2013-01-27 22:06:00,31.7,31.7,29.89,SSE,159,1.0,5.0,100,0.00,,,0.00,0,WeatherHawk,2013-01-28 04:06:00,
2013-01-27 22:11:00,31.8,31.8,29.90,SSE,150,2.0,6.0,100,0.00,,,0.00,0,WeatherHawk,2013-01-28 04:11:00,
2013-01-27 22:17:00,31.8,31.8,29.89,SE,146,4.0,6.0,100,0.00,,,0.00,0,WeatherHawk,2013-01-28 04:17:00,
2013-01-27 22:22:00,31.8,31.8,29.89,SSE,158,3.0,6.0,100,0.00,,,0.00,0,WeatherHawk,2013-01-28 04:22:00,
2013-01-27 22:27:00,31.8,31.8,29.89,SSE,150,3.0,6.0,100,0.00,,,0.00,0,WeatherHawk,2013-01-28 04:27:00,
2013-01-27 22:32:00,31.8,31.8,29.89,SE,129,3.0,6.0,100,0.00,,,0.00,0,WeatherHawk,2013-01-28 04:32:00,
2013-01-27 22:38:00,31.9,31.9,29.89,SSE,161,2.0,6.0,100,0.00,,,0.00,0,WeatherHawk,2013-01-28 04:38:00,
2013-01-27 22:43:00,31.9,31.9,29.89,SSE,166,3.0,6.0,100,0.00,,,0.00,0,WeatherHawk,2013-01-28 04:43:00,
2013-01-27 22:48:00,32.0,32.0,29.89,SSE,167,5.0,6.0,100,0.00,,,0.00,0,WeatherHawk,2013-01-28 04:48:00,
2013-01-27 22:53:00,31.9,31.9,29.89,SE,132,3.0,6.0,100,0.00,,,0.00,0,WeatherHawk,2013-01-28 04:53:00,
2013-01-27 22:58:00,32.0,32.0,29.89,South,170,2.0,6.0,100,0.00,,,0.00,0,WeatherHawk,2013-01-28 04:58:00,
2013-01-27 23:03:00,32.0,32.0,29.89,South,170,2.0,6.0,100,0.00,,,0.00,0,WeatherHawk,2013-01-28 05:03:00,
2013-01-27 23:04:00,32.1,32.1,29.88,ESE,114,5.0,6.0,100,0.00,,,0.00,0,WeatherHawk,2013-01-28 05:04:00,
2013-01-27 23:09:00,32.1,32.1,29.89,SE,142,3.0,6.0,100,0.00,,,0.00,0,WeatherHawk,2013-01-28 05:09:00,
2013-01-27 23:10:00,32.1,32.1,29.89,SSE,154,4.0,-999.0,100,0.00,,,0.00,0,WeatherHawk,2013-01-28 05:10:00,
2013-01-27 23:15:00,32.1,32.1,29.89,SSW,193,2.0,5.0,100,0.00,,,0.00,0,WeatherHawk,2013-01-28 05:15:00,
2013-01-27 23:20:00,32.1,32.1,29.89,SSE,162,3.0,5.0,100,0.00,,,0.00,0,WeatherHawk,2013-01-28 05:20:00,
2013-01-27 23:25:00,32.2,32.2,29.89,SSE,166,5.0,6.0,100,0.00,,,0.00,0,WeatherHawk,2013-01-28 05:25:00,
2013-01-27 23:30:00,32.2,32.2,29.88,South,178,3.0,6.0,100,0.00,,,0.00,0,WeatherHawk,2013-01-28 05:30:00,
2013-01-27 23:35:00,32.3,32.3,29.89,SE,125,5.0,5.0,100,0.00,,,0.00,0,WeatherHawk,2013-01-28 05:35:00,
2013-01-27 23:41:00,32.2,32.2,29.88,SSE,166,0.0,6.0,100,0.00,,,0.00,0,WeatherHawk,2013-01-28 05:41:00,
2013-01-27 23:46:00,32.3,32.3,29.88,SSE,147,2.0,6.0,100,0.00,,,0.00,0,WeatherHawk,2013-01-28 05:46:00,
2013-01-27 23:51:00,32.3,32.3,29.88,SE,142,3.0,7.0,100,0.00,,,0.00,0,WeatherHawk,2013-01-28 05:51:00,
2013-01-27 23:56:00,32.3,32.3,29.88,SSE,158,0.0,7.0,100,0.00,,,0.00,0,WeatherHawk,2013-01-28 05:56:00,